Aviation Digital Data Service (ADDS)

Output produced by METARs form (1806 UTC 19 October 2017)
found at http://www.aviationweather.gov/adds/metars/
 
LSMA 191750Z AUTO 20002KT 9999NDV FEW200 12/09 Q1014 RMK
LSZB 191750Z VRB03KT CAVOK 12/08 Q1013 NOSIG
TAF LSZB 191425Z 1915/1924 VRB03KT CAVOK 
     BECMG 1917/1919 9999 BKN080
       
LSMD 191750Z AUTO 14002KT 9999NDV NCD 13/09 Q1013 RMK
LSME 191750Z AUTO 00000KT 9999NDV SCT210 14/09 Q1013 RMK
LSGG 191750Z VRB01KT CAVOK 15/08 Q1014 NOSIG
TAF LSGG 191725Z 1918/2024 VRB03KT CAVOK TX19/2015Z TN08/2005Z 
     BECMG 2010/2012 23007KT 9999 SCT040 BKN080
       
LSGC 191750Z AUTO 00000KT 9999 NCD 09/05 Q1016
TAF LSGC 191425Z 1915/1924 VRB03KT CAVOK
       
LSZA 191750Z VRB03KT 5000 BR NSC 13/11 Q1018 NOSIG
TAF AMD LSZA 191712Z 1917/1924 VRB03KT 4000 NSC
       
LSMM 191750Z AUTO 08003KT 050V140 9999NDV FEW230 10/07 Q1014 RMK
LSMP 191750Z AUTO 20002KT 9999NDV NCD 14/08 Q1014 RMK
LSZS 191750Z AUTO 17004KT CAVOK 05/M02 Q1020
TAF LSZS 191425Z 1915/1924 22010KT CAVOK TX12/1915Z
       
LSGS 191750Z AUTO 00000KT CAVOK 15/05 Q1014
TAF LSGS 191425Z 1915/1924 25006KT CAVOK 
     BECMG 1918/1920 VRB03KT
       
LSZR 191750Z VRB02KT 9000 NSC 11/10 Q1013 NOSIG RMK Q
TAF LSZR 191425Z 1915/1924 28005KT CAVOK 
     BECMG 1919/1921 VRB03KT 4000 BR 
     BECMG 1921/1923 1500 MIFG
       
LSZH 191750Z 02005KT CAVOK 15/10 Q1013 NOSIG
TAF LSZH 191725Z 1918/2024 VRB03KT CAVOK TX19/2015Z TN06/2005Z 
     BECMG 1923/2002 4000 BR NSC 
     PROB40 2002/2005 3000 MIFG 
     PROB30 2002/2004 1500 PRFG VV002 
     BECMG 2009/2012 9999 BKN060